Time;durP1;ratioP1;P1;durP2;ratioP2;P2;SDS_P1;SDS_P2;PMS_P1;PMS_P2;Temp;Humidity;BMP_temperature;BMP_pressure;BME280_temperature;BME280_humidity;BME280_pressure;Samples;Min_cycle;Max_cycle;Signal;HPM_P1;HPM_P2
2022/08/24 00:01:58;;;;;;;6.13;3.40;;;23.80;64.10;;;;;;4985984;28;20041;-62
2022/08/24 00:04:24;;;;;;;6.95;3.88;;;23.80;64.30;;;;;;4984700;28;20040;-62
2022/08/24 00:06:49;;;;;;;15.18;4.97;;;23.70;64.30;;;;;;4986415;28;20026;-62
2022/08/24 00:09:15;;;;;;;7.68;4.10;;;23.70;64.30;;;;;;5002967;28;20034;-63
2022/08/24 00:11:41;;;;;;;8.45;4.63;;;23.70;64.40;;;;;;4972718;28;20029;-63
2022/08/24 00:14:07;;;;;;;7.28;4.22;;;23.70;64.50;;;;;;5035580;28;20030;-62
2022/08/24 00:16:34;;;;;;;7.88;3.80;;;23.70;64.60;;;;;;5002757;28;20045;-62
2022/08/24 00:18:59;;;;;;;8.65;4.18;;;23.70;64.90;;;;;;5000796;28;20026;-62
2022/08/24 00:21:25;;;;;;;7.32;3.95;;;23.60;64.80;;;;;;5001738;28;20378;-62
2022/08/24 00:23:51;;;;;;;6.93;3.70;;;23.60;64.90;;;;;;5000192;28;20045;-62
2022/08/24 00:26:17;;;;;;;10.18;3.88;;;23.50;65.00;;;;;;5017544;28;20574;-63
2022/08/24 00:28:42;;;;;;;7.13;3.83;;;23.50;64.90;;;;;;5002931;28;20037;-62
2022/08/24 00:31:09;;;;;;;7.28;4.03;;;23.50;65.10;;;;;;5000769;28;20080;-62
2022/08/24 00:33:34;;;;;;;5.25;3.67;;;23.40;65.20;;;;;;5000610;28;21022;-62
2022/08/24 00:36:00;;;;;;;6.35;4.07;;;23.40;65.20;;;;;;4986336;28;20091;-62
2022/08/24 00:38:26;;;;;;;6.97;4.10;;;23.40;65.20;;;;;;5000535;28;20054;-62
2022/08/24 00:40:51;;;;;;;8.13;4.95;;;23.40;65.50;;;;;;5001368;28;20038;-62
2022/08/24 00:43:22;;;;;;;7.03;4.15;;;23.40;65.50;;;;;;4983931;28;20052;-63
2022/08/24 00:46:07;;;;;;;9.70;4.38;;;23.50;65.80;;;;;;5001002;28;20096;-63
2022/08/24 00:48:33;;;;;;;9.13;4.55;;;23.30;65.80;;;;;;4987029;28;20057;-63
2022/08/24 00:51:12;;;;;;;5.25;3.80;;;23.30;65.80;;;;;;5004169;28;20018;-62
2022/08/24 00:53:41;;;;;;;5.35;4.25;;;23.20;65.90;;;;;;5003076;28;20045;-63
2022/08/24 00:56:09;;;;;;;7.32;4.80;;;23.20;66.00;;;;;;4984001;28;20385;-62
2022/08/24 00:58:48;;;;;;;6.82;4.50;;;23.20;66.20;;;;;;4998138;28;20044;-62
2022/08/24 01:01:13;;;;;;;5.97;4.45;;;23.20;66.20;;;;;;4983690;28;20053;-62
2022/08/24 01:03:40;;;;;;;12.82;5.13;;;23.20;66.30;;;;;;5000774;28;20026;-62
2022/08/24 01:06:06;;;;;;;9.32;4.65;;;23.10;66.40;;;;;;4999247;28;20022;-62
2022/08/24 01:08:32;;;;;;;7.55;4.47;;;23.10;66.60;;;;;;4999181;28;20536;-62
2022/08/24 01:11:03;;;;;;;8.10;4.50;;;23.10;66.60;;;;;;4998737;28;20031;-62
2022/08/24 01:13:29;;;;;;;5.97;4.28;;;23.00;66.70;;;;;;5017119;28;20386;-62
2022/08/24 01:15:57;;;;;;;5.93;4.45;;;23.00;66.90;;;;;;4985101;28;20026;-62
2022/08/24 01:21:31;;;;;;;6.05;3.97;;;23.00;66.90;;;;;;4978968;28;20560;-62
2022/08/24 01:23:58;;;;;;;7.00;3.88;;;22.90;67.10;;;;;;4962441;28;20116;-62
2022/08/24 01:26:25;;;;;;;4.65;3.90;;;22.90;67.00;;;;;;4972712;28;20038;-62
2022/08/24 01:28:54;;;;;;;4.38;3.55;;;22.90;67.20;;;;;;5002773;28;20022;-62
2022/08/24 01:31:21;;;;;;;5.05;3.60;;;22.80;67.30;;;;;;4999722;28;20171;-62
2022/08/24 01:33:48;;;;;;;4.20;3.67;;;22.80;67.40;;;;;;5010755;28;20026;-63
2022/08/24 01:36:20;;;;;;;5.18;3.75;;;22.80;67.40;;;;;;5000017;28;20050;-62
2022/08/24 01:38:46;;;;;;;5.22;3.40;;;22.80;67.50;;;;;;5000773;28;20127;-61
2022/08/24 01:41:11;;;;;;;6.07;3.67;;;22.80;67.70;;;;;;4981140;28;20029;-62
2022/08/24 01:43:37;;;;;;;4.68;3.50;;;22.80;67.70;;;;;;5000706;28;20136;-61
2022/08/24 01:46:02;;;;;;;8.07;3.75;;;22.70;67.70;;;;;;4999527;28;20034;-61
2022/08/24 01:48:28;;;;;;;5.13;2.90;;;22.70;67.90;;;;;;4997390;28;20041;-62
2022/08/24 01:50:53;;;;;;;6.82;3.15;;;22.70;68.00;;;;;;5000382;28;20129;-62
2022/08/24 01:53:19;;;;;;;5.07;3.50;;;22.60;68.10;;;;;;4999824;28;20024;-62
2022/08/24 01:55:44;;;;;;;4.63;2.97;;;22.60;68.10;;;;;;5000136;28;20133;-62
2022/08/24 01:58:10;;;;;;;5.45;3.55;;;22.60;68.20;;;;;;5001059;28;20149;-62
2022/08/24 02:00:36;;;;;;;4.65;3.15;;;22.50;68.20;;;;;;4981639;28;20064;-62
2022/08/24 02:03:02;;;;;;;4.53;3.25;;;22.50;68.30;;;;;;5001666;28;20045;-62
2022/08/24 02:05:27;;;;;;;6.90;3.40;;;22.50;68.40;;;;;;5001275;28;20029;-62
2022/08/24 02:07:53;;;;;;;5.15;3.35;;;22.50;68.50;;;;;;5000061;28;20026;-62
2022/08/24 02:10:19;;;;;;;3.20;2.78;;;22.50;68.50;;;;;;4982716;28;20034;-62
2022/08/24 02:12:56;;;;;;;4.50;3.05;;;22.40;68.50;;;;;;4999561;28;20509;-62
2022/08/24 02:15:26;;;;;;;5.43;2.83;;;22.40;68.50;;;;;;5013047;28;20040;-62
2022/08/24 02:17:52;;;;;;;5.13;3.30;;;22.40;68.60;;;;;;4998283;28;22564;-63
2022/08/24 02:20:18;;;;;;;4.53;2.85;;;22.40;68.60;;;;;;4999171;28;20608;-62
2022/08/24 02:22:43;;;;;;;4.97;3.10;;;22.40;68.60;;;;;;4983369;28;20108;-62
2022/08/24 02:25:09;;;;;;;4.00;2.75;;;22.40;68.60;;;;;;4999443;28;20126;-61
2022/08/24 02:27:34;;;;;;;4.28;2.92;;;22.30;68.60;;;;;;5001773;28;20045;-62
2022/08/24 02:30:00;;;;;;;2.95;2.63;;;22.30;68.70;;;;;;4999568;28;20032;-61
2022/08/24 02:32:25;;;;;;;5.35;2.80;;;22.30;68.80;;;;;;4997966;28;21235;-62
2022/08/24 02:34:51;;;;;;;7.90;3.10;;;22.20;68.90;;;;;;4996528;28;20030;-62
2022/08/24 02:37:17;;;;;;;8.38;3.30;;;22.20;68.90;;;;;;4999066;28;20037;-62
2022/08/24 02:39:43;;;;;;;6.60;3.10;;;22.20;68.90;;;;;;4997824;28;20379;-61
2022/08/24 02:42:08;;;;;;;5.78;3.28;;;22.20;69.00;;;;;;5001007;28;20448;-63
2022/08/24 02:44:34;;;;;;;8.23;3.28;;;22.20;69.10;;;;;;5000095;28;20036;-62
2022/08/24 02:46:59;;;;;;;3.20;2.53;;;22.10;69.20;;;;;;5000829;28;20244;-62
2022/08/24 02:49:25;;;;;;;4.63;2.97;;;22.10;69.40;;;;;;4997827;28;20021;-62
2022/08/24 02:51:50;;;;;;;4.80;3.30;;;22.10;69.60;;;;;;5002540;28;20026;-62
2022/08/24 02:54:16;;;;;;;3.72;3.10;;;22.00;69.60;;;;;;4999416;28;20124;-62
2022/08/24 02:56:43;;;;;;;3.92;2.97;;;22.10;69.70;;;;;;4998897;28;20026;-62
2022/08/24 02:59:08;;;;;;;11.00;3.53;;;22.00;69.80;;;;;;4980117;28;20030;-62
2022/08/24 03:01:34;;;;;;;5.00;3.55;;;22.00;69.80;;;;;;4997095;28;20057;-62
2022/08/24 03:03:59;;;;;;;5.05;3.65;;;22.00;69.90;;;;;;4997681;28;20105;-63
2022/08/24 03:06:25;;;;;;;6.70;3.20;;;22.00;70.10;;;;;;4999192;28;20400;-63
2022/08/24 03:08:50;;;;;;;6.63;3.20;;;22.00;70.20;;;;;;4998760;28;20034;-63
2022/08/24 03:11:16;;;;;;;4.10;3.05;;;21.90;70.20;;;;;;4998603;28;20041;-61
2022/08/24 03:13:41;;;;;;;4.13;2.78;;;21.90;70.30;;;;;;4999111;28;21706;-60
2022/08/24 03:16:07;;;;;;;5.65;3.10;;;21.90;70.40;;;;;;5000138;28;20026;-63
2022/08/24 03:18:33;;;;;;;4.95;2.70;;;21.80;70.50;;;;;;5012151;28;20030;-63
2022/08/24 03:20:59;;;;;;;6.22;2.80;;;21.80;70.70;;;;;;4999875;28;20042;-63
2022/08/24 03:23:25;;;;;;;5.28;2.75;;;21.80;70.80;;;;;;5016175;28;20034;-61
2022/08/24 03:25:51;;;;;;;5.00;3.05;;;21.80;71.00;;;;;;4998665;28;20030;-61
2022/08/24 03:28:17;;;;;;;5.72;2.63;;;21.70;71.00;;;;;;5001397;28;20049;-61
2022/08/24 03:30:43;;;;;;;6.53;2.83;;;21.70;71.00;;;;;;4998963;28;20117;-63
2022/08/24 03:33:09;;;;;;;5.72;2.88;;;21.70;71.10;;;;;;4979110;28;20041;-64
2022/08/24 03:35:34;;;;;;;5.40;2.85;;;21.70;71.20;;;;;;5001819;28;20033;-63
2022/08/24 03:38:00;;;;;;;7.15;2.90;;;21.60;71.20;;;;;;5003568;28;20362;-60
2022/08/24 03:40:26;;;;;;;6.65;2.70;;;21.60;71.30;;;;;;5003858;28;20099;-60
2022/08/24 03:42:51;;;;;;;5.95;3.05;;;21.60;71.30;;;;;;5001980;28;20405;-60
2022/08/24 03:45:17;;;;;;;5.40;2.40;;;21.60;71.40;;;;;;4985497;28;20034;-63
2022/08/24 03:47:43;;;;;;;6.22;3.10;;;21.60;71.40;;;;;;5001143;28;20050;-63
2022/08/24 03:50:09;;;;;;;5.10;2.75;;;21.60;71.50;;;;;;5003716;28;20026;-63
2022/08/24 03:52:35;;;;;;;7.90;2.80;;;21.60;71.70;;;;;;5001024;28;20029;-63
2022/08/24 03:55:04;;;;;;;10.13;3.08;;;21.60;71.90;;;;;;5004294;28;20034;-62
2022/08/24 03:57:30;;;;;;;6.43;3.08;;;21.50;71.90;;;;;;5014745;28;20101;-62
2022/08/24 03:59:56;;;;;;;7.75;2.65;;;21.50;71.80;;;;;;5003622;28;20048;-61
2022/08/24 04:02:21;;;;;;;6.20;2.83;;;21.40;71.80;;;;;;5003392;28;20026;-61
2022/08/24 04:04:47;;;;;;;8.95;2.85;;;21.50;72.00;;;;;;5001357;28;20030;-61
2022/08/24 04:07:12;;;;;;;7.60;2.53;;;21.40;71.90;;;;;;5003004;28;20112;-60
2022/08/24 04:09:38;;;;;;;5.28;2.90;;;21.40;72.00;;;;;;5001834;28;20033;-61
2022/08/24 04:12:03;;;;;;;8.10;2.67;;;21.40;72.00;;;;;;4983060;28;20880;-61
2022/08/24 04:14:29;;;;;;;6.40;2.63;;;21.40;72.10;;;;;;5001161;28;20038;-61
2022/08/24 04:16:54;;;;;;;7.47;2.90;;;21.40;72.10;;;;;;5001045;28;20231;-61
2022/08/24 04:19:20;;;;;;;9.65;2.80;;;21.30;72.10;;;;;;5003677;28;20050;-61
2022/08/24 04:21:45;;;;;;;7.22;2.65;;;21.30;72.10;;;;;;5002558;28;20050;-61
2022/08/24 04:24:11;;;;;;;5.68;2.88;;;21.30;72.20;;;;;;5003265;28;20022;-60
2022/08/24 04:26:38;;;;;;;7.05;2.70;;;21.30;72.20;;;;;;5005122;28;20437;-62
2022/08/24 04:29:05;;;;;;;5.55;2.78;;;21.30;72.40;;;;;;4986869;28;20044;-61
2022/08/24 04:31:30;;;;;;;6.45;2.60;;;21.20;72.40;;;;;;5017709;28;20038;-61
2022/08/24 04:33:56;;;;;;;4.18;2.80;;;21.20;72.40;;;;;;4984610;28;20041;-61
2022/08/24 04:36:21;;;;;;;5.43;2.70;;;21.20;72.60;;;;;;5017967;28;20037;-63
2022/08/24 04:38:47;;;;;;;5.90;2.42;;;21.20;72.50;;;;;;5002856;28;20030;-60
2022/08/24 04:41:13;;;;;;;5.72;2.47;;;21.20;72.50;;;;;;5001140;28;20088;-63
2022/08/24 04:43:41;;;;;;;3.80;2.40;;;21.10;72.60;;;;;;4985071;28;20507;-62
2022/08/24 04:46:07;;;;;;;6.55;2.53;;;21.10;72.70;;;;;;4984226;28;20030;-61
2022/08/24 04:48:33;;;;;;;6.13;2.47;;;21.10;72.70;;;;;;5000650;28;20045;-62
2022/08/24 04:51:03;;;;;;;4.07;2.85;;;21.10;73.40;;;;;;5019885;28;20025;-61
2022/08/24 04:53:30;;;;;;;4.95;2.67;;;21.00;72.80;;;;;;5003976;28;20040;-61
2022/08/24 04:55:55;;;;;;;3.05;2.40;;;21.00;72.90;;;;;;5001111;28;20025;-61
2022/08/24 04:58:21;;;;;;;3.80;2.42;;;21.10;72.90;;;;;;5001984;28;20112;-61
2022/08/24 05:00:46;;;;;;;5.90;2.30;;;21.00;72.90;;;;;;5000687;28;20421;-63
2022/08/24 05:03:12;;;;;;;6.25;2.78;;;21.00;73.00;;;;;;4999280;28;20087;-63
2022/08/24 05:05:41;;;;;;;5.03;2.47;;;21.00;73.10;;;;;;5016824;28;20542;-66
2022/08/24 05:08:07;;;;;;;5.07;2.42;;;21.00;73.10;;;;;;5015715;28;20485;-62
2022/08/24 05:10:33;;;;;;;6.10;2.45;;;21.00;73.20;;;;;;4995374;28;20045;-62
2022/08/24 05:12:58;;;;;;;4.53;2.58;;;20.90;73.20;;;;;;4999675;28;20358;-62
2022/08/24 05:15:24;;;;;;;4.57;2.40;;;20.90;73.30;;;;;;5030995;28;20022;-61
2022/08/24 05:17:49;;;;;;;5.45;2.92;;;20.90;73.40;;;;;;4985685;28;20586;-62
2022/08/24 05:20:16;;;;;;;6.28;2.72;;;20.90;73.40;;;;;;5001245;28;20524;-61
2022/08/24 05:22:41;;;;;;;4.78;2.35;;;20.90;73.40;;;;;;4985804;28;20521;-63
2022/08/24 05:25:07;;;;;;;5.30;2.85;;;20.90;73.50;;;;;;5000114;28;20037;-61
2022/08/24 05:27:33;;;;;;;6.18;2.50;;;20.80;73.40;;;;;;4999001;28;20528;-61
2022/08/24 05:29:58;;;;;;;4.88;2.30;;;20.80;73.60;;;;;;5000150;28;20030;-62
2022/08/24 05:32:24;;;;;;;4.70;2.47;;;20.80;73.50;;;;;;4998325;28;20113;-62
2022/08/24 05:34:49;;;;;;;3.83;2.38;;;20.80;73.70;;;;;;5002492;28;20033;-61
2022/08/24 05:37:15;;;;;;;3.88;2.50;;;20.80;73.70;;;;;;5002243;28;20372;-62
2022/08/24 05:39:41;;;;;;;3.72;2.40;;;20.80;73.80;;;;;;5000777;28;20033;-62
2022/08/24 05:42:06;;;;;;;3.58;2.22;;;20.70;73.80;;;;;;5002515;28;20485;-62
2022/08/24 05:44:32;;;;;;;6.65;2.72;;;20.70;73.90;;;;;;4997948;28;20046;-62
2022/08/24 05:46:57;;;;;;;6.38;3.10;;;20.70;74.10;;;;;;5000918;28;20077;-62
2022/08/24 05:49:24;;;;;;;4.78;3.03;;;20.70;74.40;;;;;;4971832;28;20712;-62
2022/08/24 05:51:50;;;;;;;5.10;2.97;;;20.70;74.70;;;;;;4996507;28;20474;-62
2022/08/24 05:54:16;;;;;;;6.88;3.08;;;20.60;75.30;;;;;;4998518;28;20034;-62
2022/08/24 05:56:41;;;;;;;11.43;3.10;;;20.60;75.70;;;;;;4997994;28;20034;-62
2022/08/24 05:59:07;;;;;;;7.25;2.85;;;20.60;76.10;;;;;;4975405;28;20867;-62
2022/08/24 06:01:32;;;;;;;5.47;3.38;;;20.60;75.90;;;;;;4999066;28;20503;-61
2022/08/24 06:03:58;;;;;;;8.52;3.25;;;20.60;76.20;;;;;;4995186;28;20049;-61
2022/08/24 06:06:25;;;;;;;5.43;3.70;;;20.60;76.90;;;;;;4992367;28;20072;-61
2022/08/24 06:08:52;;;;;;;7.05;3.72;;;20.50;77.80;;;;;;4995717;28;20466;-62
2022/08/24 06:11:28;;;;;;;5.90;3.53;;;20.40;78.00;;;;;;4999783;28;20025;-62
2022/08/24 06:13:56;;;;;;;5.55;3.10;;;20.40;78.00;;;;;;4991893;28;20090;-62
2022/08/24 06:16:22;;;;;;;7.82;3.22;;;20.30;78.20;;;;;;4993421;28;20143;-62
2022/08/24 06:18:49;;;;;;;8.65;3.22;;;20.20;78.70;;;;;;4998138;28;20032;-61
2022/08/24 06:21:17;;;;;;;8.60;3.10;;;20.10;78.80;;;;;;5006716;28;20026;-62
2022/08/24 06:23:43;;;;;;;11.05;3.60;;;20.20;79.00;;;;;;4993683;28;20042;-61
2022/08/24 06:28:53;;;;;;;9.18;3.00;;;20.20;79.20;;;;;;5007611;28;21622;-61
2022/08/24 06:31:18;;;;;;;10.25;3.22;;;20.10;79.20;;;;;;4992883;28;20029;-62
2022/08/24 06:33:44;;;;;;;11.32;3.30;;;20.10;79.30;;;;;;5007283;28;20040;-61
2022/08/24 06:36:09;;;;;;;5.05;3.05;;;20.10;79.40;;;;;;4989779;28;20038;-61
2022/08/24 06:38:35;;;;;;;9.20;3.65;;;20.10;79.40;;;;;;4973009;28;20044;-61
2022/08/24 06:41:01;;;;;;;23.95;4.38;;;20.10;79.90;;;;;;4977507;28;20037;-61
2022/08/24 06:43:26;;;;;;;10.00;3.25;;;20.10;79.80;;;;;;4996765;28;20571;-62
2022/08/24 06:45:53;;;;;;;6.10;3.28;;;20.10;80.00;;;;;;4997128;28;20033;-61
2022/08/24 06:48:20;;;;;;;8.52;3.63;;;20.10;79.90;;;;;;5012198;28;20437;-61
2022/08/24 06:50:46;;;;;;;11.90;4.25;;;20.10;79.80;;;;;;4995710;28;20066;-62
2022/08/24 06:53:13;;;;;;;13.35;4.18;;;20.10;79.70;;;;;;4996184;28;20025;-62
2022/08/24 06:55:47;;;;;;;13.30;4.28;;;20.20;79.90;;;;;;4976984;28;20030;-61
2022/08/24 06:58:13;;;;;;;13.60;4.38;;;20.20;79.90;;;;;;5005403;28;20038;-61
2022/08/24 07:00:39;;;;;;;10.82;3.88;;;20.20;79.90;;;;;;4991132;28;20563;-62
2022/08/24 07:03:04;;;;;;;13.90;3.75;;;20.20;80.00;;;;;;4989424;28;20746;-62
2022/08/24 07:05:30;;;;;;;13.20;3.67;;;20.20;79.90;;;;;;4985094;28;20034;-61
2022/08/24 07:07:58;;;;;;;15.25;3.90;;;20.20;79.90;;;;;;5021796;28;22085;-62
2022/08/24 07:10:24;;;;;;;10.77;4.07;;;20.20;80.20;;;;;;4990919;28;20069;-62
2022/08/24 07:12:49;;;;;;;18.65;3.97;;;20.20;80.10;;;;;;4990275;28;20041;-62
2022/08/24 07:15:15;;;;;;;15.30;3.67;;;20.20;80.00;;;;;;4992961;28;20038;-61
2022/08/24 07:17:40;;;;;;;10.02;3.05;;;20.20;79.70;;;;;;4993931;28;20030;-61
2022/08/24 07:20:08;;;;;;;9.15;3.15;;;20.20;79.70;;;;;;4985356;28;20117;-62
2022/08/24 07:22:33;;;;;;;10.48;3.65;;;20.20;79.70;;;;;;4995428;28;20034;-62
2022/08/24 07:24:59;;;;;;;9.20;3.13;;;20.30;79.70;;;;;;4991368;28;20045;-61
2022/08/24 07:27:24;;;;;;;6.40;3.33;;;20.20;79.70;;;;;;4994336;28;20053;-61
2022/08/24 07:29:53;;;;;;;8.23;3.25;;;20.30;79.70;;;;;;5023541;28;20418;-61
2022/08/24 07:32:19;;;;;;;16.75;3.97;;;20.30;79.60;;;;;;4989701;28;20022;-61
2022/08/24 07:34:45;;;;;;;17.20;3.65;;;20.30;79.50;;;;;;4987490;28;20557;-62
2022/08/24 07:37:10;;;;;;;11.10;3.88;;;20.30;79.70;;;;;;4957640;28;20482;-61
2022/08/24 07:39:36;;;;;;;22.98;3.90;;;20.30;79.70;;;;;;4987806;28;20041;-61
2022/08/24 07:42:01;;;;;;;12.60;3.35;;;20.30;79.80;;;;;;4992774;28;20049;-62
2022/08/24 07:44:27;;;;;;;33.05;5.57;;;20.50;79.60;;;;;;4990095;28;20581;-61
2022/08/24 07:46:52;;;;;;;17.92;4.15;;;20.30;79.60;;;;;;4991680;28;20035;-61
2022/08/24 07:49:18;;;;;;;24.23;5.10;;;20.40;79.80;;;;;;4995337;28;20560;-61
2022/08/24 07:51:43;;;;;;;26.58;4.78;;;20.40;79.50;;;;;;4993573;28;20052;-61
2022/08/24 07:54:09;;;;;;;17.98;3.78;;;20.40;79.70;;;;;;4997963;28;20029;-62
2022/08/24 07:56:34;;;;;;;15.57;3.78;;;20.40;79.40;;;;;;5005461;28;20164;-61
2022/08/24 07:59:00;;;;;;;22.33;4.13;;;20.40;79.20;;;;;;4990013;28;20030;-62
2022/08/24 08:01:25;;;;;;;20.98;4.95;;;20.50;79.30;;;;;;5006660;28;20089;-62
2022/08/24 08:03:51;;;;;;;10.65;3.85;;;20.50;79.20;;;;;;4995104;28;20078;-62
2022/08/24 08:06:17;;;;;;;15.68;4.07;;;20.50;79.00;;;;;;4994191;28;20041;-62
2022/08/24 08:08:43;;;;;;;26.05;4.53;;;20.60;79.00;;;;;;5007193;28;22399;-62
2022/08/24 08:11:09;;;;;;;12.10;3.75;;;20.60;78.70;;;;;;4987874;28;20069;-61
2022/08/24 08:13:35;;;;;;;19.42;4.72;;;20.60;78.60;;;;;;4990377;28;20054;-62
2022/08/24 08:16:02;;;;;;;14.80;4.05;;;20.60;78.50;;;;;;5005099;28;20044;-62
2022/08/24 08:18:28;;;;;;;22.25;3.85;;;20.70;78.30;;;;;;4989030;28;20088;-62
2022/08/24 08:20:54;;;;;;;18.70;3.75;;;20.70;78.10;;;;;;4991841;28;20114;-62
2022/08/24 08:26:05;;;;;;;8.20;3.22;;;20.70;78.50;;;;;;4995312;28;20045;-62
2022/08/24 08:28:33;;;;;;;18.55;4.75;;;20.90;77.80;;;;;;4983393;28;20126;-62
2022/08/24 08:31:04;;;;;;;16.23;3.85;;;20.80;77.60;;;;;;5010779;28;20114;-62
2022/08/24 08:33:30;;;;;;;14.27;3.25;;;20.80;77.30;;;;;;4984575;28;20431;-62
2022/08/24 08:36:08;;;;;;;19.48;3.85;;;20.90;77.10;;;;;;4998391;28;20560;-61
2022/08/24 08:38:34;;;;;;;19.33;4.35;;;20.90;76.70;;;;;;4981048;28;20022;-62
2022/08/24 08:41:06;;;;;;;39.72;6.15;;;21.00;76.70;;;;;;4994309;28;20037;-62
2022/08/24 08:43:39;;;;;;;35.38;5.78;;;21.00;76.60;;;;;;4993387;28;20057;-61
2022/08/24 08:46:32;;;;;;;24.48;5.13;;;21.00;76.90;;;;;;4998913;28;20100;-62
2022/08/24 08:49:16;;;;;;;24.98;4.45;;;21.10;75.70;;;;;;4995620;28;20057;-62
2022/08/24 08:52:07;;;;;;;22.83;4.60;;;21.10;75.50;;;;;;4973821;28;20191;-62
2022/08/24 08:54:44;;;;;;;33.17;4.20;;;21.10;75.10;;;;;;5002549;28;21023;-62
2022/08/24 08:57:10;;;;;;;24.13;4.57;;;21.10;74.40;;;;;;4995350;28;20034;-62
2022/08/24 09:00:25;;;;;;;17.20;3.50;;;21.20;74.20;;;;;;4998906;28;20041;-62
2022/08/24 09:03:17;;;;;;;18.48;4.03;;;21.20;73.80;;;;;;4999986;28;20072;-62
2022/08/24 09:05:57;;;;;;;28.27;4.72;;;21.30;73.70;;;;;;4991628;28;20042;-62
2022/08/24 09:08:56;;;;;;;15.73;4.85;;;21.30;73.70;;;;;;4982703;28;20068;-62
2022/08/24 09:12:02;;;;;;;24.92;4.43;;;21.40;73.90;;;;;;4980918;28;20464;-62
2022/08/24 09:14:34;;;;;;;22.43;4.37;;;21.40;74.00;;;;;;5001928;28;20026;-62
2022/08/24 09:17:23;;;;;;;39.47;5.78;;;21.40;73.90;;;;;;4999751;28;20018;-62
2022/08/24 09:20:30;;;;;;;37.00;5.68;;;21.50;74.10;;;;;;4988178;28;20030;-62
2022/08/24 09:23:19;;;;;;;44.28;6.28;;;21.50;74.30;;;;;;5000668;28;20033;-62
2022/08/24 09:25:58;;;;;;;39.25;7.00;;;21.60;74.60;;;;;;4997906;28;20040;-62
2022/08/24 09:28:35;;;;;;;41.38;5.65;;;21.60;74.50;;;;;;4997880;28;20108;-62
2022/08/24 09:31:08;;;;;;;48.28;6.57;;;21.70;74.70;;;;;;4997251;28;20109;-62
2022/08/24 09:33:49;;;;;;;49.88;6.63;;;21.70;74.50;;;;;;4998628;28;20026;-62
2022/08/24 09:36:52;;;;;;;35.28;7.15;;;21.80;74.60;;;;;;4985851;28;20042;-62
2022/08/24 09:39:37;;;;;;;46.17;7.57;;;21.80;74.00;;;;;;5000381;28;20153;-62
2022/08/24 09:42:23;;;;;;;44.75;6.65;;;21.90;73.60;;;;;;4998054;28;20096;-62
2022/08/24 09:45:20;;;;;;;53.80;7.43;;;21.90;72.90;;;;;;4999919;28;20041;-62
2022/08/24 09:48:05;;;;;;;70.63;9.82;;;22.00;72.80;;;;;;4979060;28;20064;-62
2022/08/24 09:51:12;;;;;;;55.00;7.68;;;22.10;72.40;;;;;;4998516;28;20101;-62
2022/08/24 09:54:01;;;;;;;51.38;7.95;;;22.10;71.90;;;;;;5017099;28;20053;-62
2022/08/24 09:57:07;;;;;;;75.63;9.82;;;22.10;71.40;;;;;;5000028;28;20049;-62
2022/08/24 09:59:42;;;;;;;69.28;9.80;;;22.20;71.30;;;;;;5000521;28;20527;-62
2022/08/24 10:02:32;;;;;;;62.57;8.57;;;22.20;71.20;;;;;;5000579;28;20915;-62
2022/08/24 10:05:12;;;;;;;70.03;9.55;;;22.30;71.00;;;;;;4996376;28;20125;-62
2022/08/24 10:07:37;;;;;;;79.88;9.85;;;22.40;70.10;;;;;;4979782;28;20034;-62
2022/08/24 10:10:16;;;;;;;60.70;8.38;;;22.40;70.30;;;;;;5001035;28;20393;-63
2022/08/24 10:13:03;;;;;;;55.92;7.82;;;22.40;70.30;;;;;;4983426;28;20488;-62
2022/08/24 10:15:31;;;;;;;58.05;7.35;;;22.50;70.30;;;;;;4998377;28;20037;-62
2022/08/24 10:18:16;;;;;;;52.65;7.85;;;22.50;70.20;;;;;;4998857;28;20500;-66
2022/08/24 10:20:48;;;;;;;42.95;6.60;;;22.60;70.00;;;;;;5001627;28;20172;-64
2022/08/24 10:23:24;;;;;;;40.33;6.40;;;22.60;69.90;;;;;;4988039;28;20394;-62
2022/08/24 10:26:15;;;;;;;42.88;6.65;;;22.60;69.80;;;;;;4993322;28;20475;-62
2022/08/24 10:29:13;;;;;;;41.97;5.43;;;22.60;69.80;;;;;;4974007;28;20057;-62
2022/08/24 10:32:01;;;;;;;24.05;4.82;;;22.70;69.60;;;;;;4978542;28;20066;-62
2022/08/24 10:34:54;;;;;;;31.35;5.38;;;22.80;68.80;;;;;;4976512;28;20465;-62
2022/08/24 10:37:34;;;;;;;34.35;4.93;;;22.90;67.80;;;;;;4971919;28;20030;-62
2022/08/24 10:40:11;;;;;;;37.72;5.18;;;23.00;67.60;;;;;;4984529;28;20030;-62
2022/08/24 10:45:38;;;;;;;26.40;4.40;;;23.10;66.80;;;;;;4991615;28;20110;-62
2022/08/24 10:48:31;;;;;;;32.05;4.15;;;23.20;66.40;;;;;;4994700;28;20466;-62
2022/08/24 10:51:26;;;;;;;32.53;3.70;;;23.30;65.80;;;;;;4991832;28;20030;-62
2022/08/24 10:53:52;;;;;;;25.23;3.72;;;23.40;65.20;;;;;;4986762;28;20067;-62
2022/08/24 10:56:20;;;;;;;26.05;4.07;;;23.50;64.70;;;;;;4961626;28;20038;-62
2022/08/24 10:59:02;;;;;;;20.25;3.95;;;23.60;64.20;;;;;;4984166;28;20386;-62
2022/08/24 11:01:32;;;;;;;17.75;3.63;;;23.60;63.80;;;;;;4980667;28;20671;-62
2022/08/24 11:04:10;;;;;;;33.05;4.22;;;23.70;63.50;;;;;;4992331;28;20495;-62
2022/08/24 11:06:40;;;;;;;32.80;3.78;;;23.70;63.20;;;;;;4978290;28;20145;-62
2022/08/24 11:09:14;;;;;;;37.88;5.70;;;23.80;63.10;;;;;;4981554;28;20194;-62
2022/08/24 11:11:45;;;;;;;53.83;6.53;;;23.90;63.10;;;;;;4985646;28;20124;-62
2022/08/24 11:14:25;;;;;;;43.38;6.47;;;23.90;63.70;;;;;;4990417;28;20034;-62
2022/08/24 11:16:50;;;;;;;40.25;6.40;;;23.90;63.00;;;;;;4976160;28;20062;-62
2022/08/24 11:19:25;;;;;;;42.20;7.05;;;24.00;62.60;;;;;;4993546;28;20137;-62
2022/08/24 11:21:52;;;;;;;27.90;5.37;;;24.00;62.50;;;;;;4993008;28;20026;-62
2022/08/24 11:24:18;;;;;;;21.55;3.47;;;24.10;62.20;;;;;;4986610;28;20342;-62
2022/08/24 11:27:00;;;;;;;21.88;3.42;;;24.20;61.60;;;;;;4989944;28;20037;-62
2022/08/24 11:29:50;;;;;;;30.70;4.43;;;24.30;61.20;;;;;;4981731;28;20065;-62
2022/08/24 11:32:31;;;;;;;14.18;2.80;;;24.30;61.30;;;;;;4989764;28;20190;-64
2022/08/24 11:35:03;;;;;;;17.40;3.08;;;24.40;60.50;;;;;;4986623;28;20105;-62
2022/08/24 11:37:36;;;;;;;22.90;3.33;;;24.50;60.00;;;;;;5011611;28;20966;-62
2022/08/24 11:40:04;;;;;;;25.52;3.10;;;24.60;60.10;;;;;;4978973;28;20033;-64
2022/08/24 11:43:07;;;;;;;17.58;2.60;;;24.70;59.70;;;;;;4992944;28;20379;-63
2022/08/24 11:45:34;;;;;;;14.15;2.60;;;24.80;59.40;;;;;;4977821;28;20121;-62
2022/08/24 11:48:24;;;;;;;16.38;2.97;;;24.90;59.20;;;;;;4992574;28;20029;-62
2022/08/24 11:50:51;;;;;;;19.92;3.15;;;25.00;59.10;;;;;;4979981;28;20017;-62
2022/08/24 11:53:30;;;;;;;16.60;3.20;;;25.10;58.80;;;;;;4989745;28;20049;-62
2022/08/24 11:56:08;;;;;;;19.85;3.35;;;25.20;58.40;;;;;;4980007;28;20410;-62
2022/08/24 11:58:42;;;;;;;18.52;3.10;;;25.30;58.60;;;;;;4991396;28;20073;-62
2022/08/24 12:01:31;;;;;;;18.38;3.25;;;25.20;58.40;;;;;;4997989;28;20017;-62
2022/08/24 12:04:22;;;;;;;28.60;4.15;;;25.40;58.80;;;;;;4995986;28;20022;-63
2022/08/24 12:07:26;;;;;;;17.35;3.35;;;25.40;58.90;;;;;;4995509;28;20042;-62
2022/08/24 12:09:58;;;;;;;16.08;3.13;;;25.60;58.40;;;;;;5002798;28;20087;-63
2022/08/24 12:12:26;;;;;;;16.52;3.05;;;25.60;58.20;;;;;;4990269;28;20115;-62
2022/08/24 12:15:24;;;;;;;20.85;3.13;;;25.70;58.20;;;;;;4991671;28;20096;-62
2022/08/24 12:18:01;;;;;;;21.20;3.63;;;25.80;58.30;;;;;;4984625;28;20069;-62
2022/08/24 12:20:39;;;;;;;14.95;2.97;;;25.80;58.40;;;;;;4973838;28;20464;-63
2022/08/24 12:23:25;;;;;;;11.57;2.35;;;25.80;58.20;;;;;;4961477;28;20018;-62
2022/08/24 12:26:03;;;;;;;;;;;25.90;57.90;;;;;;4988110;28;20042;-63
2022/08/24 12:28:43;;;;;;;22.30;2.47;;;25.90;57.70;;;;;;4995769;28;19914;-63
2022/08/24 12:31:20;;;;;;;24.02;3.22;;;26.00;57.20;;;;;;4973368;28;20483;-63
2022/08/24 12:33:51;;;;;;;22.67;2.78;;;26.10;56.90;;;;;;4980313;28;20465;-62
2022/08/24 12:36:30;;;;;;;22.45;3.17;;;26.10;56.40;;;;;;4975319;28;20141;-62
2022/08/24 12:39:11;;;;;;;22.85;3.17;;;26.20;56.80;;;;;;4975266;28;20025;-63
2022/08/24 12:41:53;;;;;;;20.05;2.63;;;26.20;56.00;;;;;;5000735;28;20478;-62
2022/08/24 12:44:18;;;;;;;12.23;2.72;;;26.20;55.40;;;;;;4985300;28;20496;-63
2022/08/24 12:46:47;;;;;;;10.73;2.22;;;26.30;55.40;;;;;;4962948;28;20037;-62
2022/08/24 12:49:31;;;;;;;16.70;2.17;;;26.40;55.30;;;;;;4978826;28;20049;-62
2022/08/24 12:52:20;;;;;;;15.32;2.65;;;26.40;55.20;;;;;;4990906;28;20037;-62
2022/08/24 12:54:48;;;;;;;10.55;2.25;;;26.40;55.10;;;;;;4988342;28;20160;-62
2022/08/24 12:57:48;;;;;;;17.35;2.80;;;26.50;55.40;;;;;;4990467;28;20499;-62
2022/08/24 13:00:36;;;;;;;22.30;2.92;;;26.50;55.40;;;;;;4988301;28;20025;-62
2022/08/24 13:03:07;;;;;;;25.27;2.95;;;26.60;55.20;;;;;;4974029;28;22317;-62
2022/08/24 13:05:47;;;;;;;17.50;2.80;;;26.70;55.40;;;;;;4981929;28;21846;-62
2022/08/24 13:08:20;;;;;;;18.45;2.95;;;26.70;54.80;;;;;;5003389;28;20116;-64
2022/08/24 13:10:58;;;;;;;22.05;2.88;;;26.70;54.40;;;;;;5007397;28;20052;-62
2022/08/24 13:13:48;;;;;;;19.20;2.85;;;26.80;54.30;;;;;;4981396;28;20022;-62
2022/08/24 13:16:50;;;;;;;12.55;2.40;;;26.90;54.20;;;;;;4997259;28;21864;-65